sensor_id;sensor_type;location;lat;lon;timestamp;P1;durP1;ratioP1;P2;durP2;ratioP2
53299;SDS011;39187;48.476;8.310;2024-01-15T00:00:11;39.50;;;14.27;;
53299;SDS011;39187;48.476;8.310;2024-01-15T00:02:37;35.20;;;13.27;;
53299;SDS011;39187;48.476;8.310;2024-01-15T00:05:03;37.57;;;14.70;;
53299;SDS011;39187;48.476;8.310;2024-01-15T00:07:29;32.90;;;13.20;;
53299;SDS011;39187;48.476;8.310;2024-01-15T00:09:54;31.67;;;13.90;;
53299;SDS011;39187;48.476;8.310;2024-01-15T00:12:20;25.10;;;13.10;;
53299;SDS011;39187;48.476;8.310;2024-01-15T00:14:45;33.30;;;12.00;;
53299;SDS011;39187;48.476;8.310;2024-01-15T00:17:11;36.53;;;14.90;;
53299;SDS011;39187;48.476;8.310;2024-01-15T00:19:37;30.93;;;11.60;;
53299;SDS011;39187;48.476;8.310;2024-01-15T00:22:03;38.83;;;15.30;;
53299;SDS011;39187;48.476;8.310;2024-01-15T00:24:29;36.00;;;15.70;;
53299;SDS011;39187;48.476;8.310;2024-01-15T00:26:55;45.80;;;14.70;;
53299;SDS011;39187;48.476;8.310;2024-01-15T00:29:20;35.53;;;13.47;;
53299;SDS011;39187;48.476;8.310;2024-01-15T00:31:46;39.17;;;15.97;;
53299;SDS011;39187;48.476;8.310;2024-01-15T00:34:12;44.13;;;15.00;;
53299;SDS011;39187;48.476;8.310;2024-01-15T00:36:38;47.00;;;15.53;;
53299;SDS011;39187;48.476;8.310;2024-01-15T00:39:03;37.33;;;12.90;;
53299;SDS011;39187;48.476;8.310;2024-01-15T00:41:30;42.97;;;15.37;;
53299;SDS011;39187;48.476;8.310;2024-01-15T00:43:56;38.03;;;14.60;;
53299;SDS011;39187;48.476;8.310;2024-01-15T00:46:22;35.47;;;14.20;;
53299;SDS011;39187;48.476;8.310;2024-01-15T00:48:47;50.30;;;16.93;;
53299;SDS011;39187;48.476;8.310;2024-01-15T00:51:13;40.00;;;16.37;;
53299;SDS011;39187;48.476;8.310;2024-01-15T00:53:40;44.53;;;15.87;;
53299;SDS011;39187;48.476;8.310;2024-01-15T00:56:05;39.80;;;15.37;;
53299;SDS011;39187;48.476;8.310;2024-01-15T00:58:31;35.73;;;15.07;;
53299;SDS011;39187;48.476;8.310;2024-01-15T01:00:56;46.67;;;14.50;;
53299;SDS011;39187;48.476;8.310;2024-01-15T01:03:22;30.87;;;14.40;;
53299;SDS011;39187;48.476;8.310;2024-01-15T01:05:48;39.00;;;15.30;;
53299;SDS011;39187;48.476;8.310;2024-01-15T01:08:15;32.07;;;12.87;;
53299;SDS011;39187;48.476;8.310;2024-01-15T01:10:40;38.70;;;14.47;;
53299;SDS011;39187;48.476;8.310;2024-01-15T01:13:08;32.57;;;13.80;;
53299;SDS011;39187;48.476;8.310;2024-01-15T01:15:34;40.13;;;14.77;;
53299;SDS011;39187;48.476;8.310;2024-01-15T01:17:59;33.63;;;13.97;;
53299;SDS011;39187;48.476;8.310;2024-01-15T01:20:25;37.43;;;14.73;;
53299;SDS011;39187;48.476;8.310;2024-01-15T01:22:50;33.77;;;14.63;;
53299;SDS011;39187;48.476;8.310;2024-01-15T01:25:16;32.50;;;13.97;;
53299;SDS011;39187;48.476;8.310;2024-01-15T01:27:41;32.73;;;14.33;;
53299;SDS011;39187;48.476;8.310;2024-01-15T01:30:08;34.30;;;13.53;;
53299;SDS011;39187;48.476;8.310;2024-01-15T01:32:34;30.90;;;13.00;;
53299;SDS011;39187;48.476;8.310;2024-01-15T01:35:00;29.60;;;14.77;;
53299;SDS011;39187;48.476;8.310;2024-01-15T01:37:25;29.70;;;13.93;;
53299;SDS011;39187;48.476;8.310;2024-01-15T01:39:51;35.20;;;13.80;;
53299;SDS011;39187;48.476;8.310;2024-01-15T01:42:16;34.13;;;13.90;;
53299;SDS011;39187;48.476;8.310;2024-01-15T01:44:42;27.20;;;13.93;;
53299;SDS011;39187;48.476;8.310;2024-01-15T01:47:08;29.83;;;13.97;;
53299;SDS011;39187;48.476;8.310;2024-01-15T01:49:34;26.73;;;13.03;;
53299;SDS011;39187;48.476;8.310;2024-01-15T01:52:04;40.47;;;14.47;;
53299;SDS011;39187;48.476;8.310;2024-01-15T01:54:32;40.63;;;15.60;;
53299;SDS011;39187;48.476;8.310;2024-01-15T01:56:58;26.60;;;14.03;;
53299;SDS011;39187;48.476;8.310;2024-01-15T01:59:25;35.63;;;14.77;;
53299;SDS011;39187;48.476;8.310;2024-01-15T02:01:52;45.57;;;13.43;;
53299;SDS011;39187;48.476;8.310;2024-01-15T02:04:20;35.77;;;14.37;;
53299;SDS011;39187;48.476;8.310;2024-01-15T02:06:47;44.63;;;14.73;;
53299;SDS011;39187;48.476;8.310;2024-01-15T02:09:13;34.00;;;12.87;;
53299;SDS011;39187;48.476;8.310;2024-01-15T02:11:40;57.73;;;13.90;;
53299;SDS011;39187;48.476;8.310;2024-01-15T02:14:07;44.13;;;15.50;;
53299;SDS011;39187;48.476;8.310;2024-01-15T02:16:34;41.63;;;13.37;;
53299;SDS011;39187;48.476;8.310;2024-01-15T02:19:00;40.87;;;14.40;;
53299;SDS011;39187;48.476;8.310;2024-01-15T02:21:25;37.17;;;13.97;;
53299;SDS011;39187;48.476;8.310;2024-01-15T02:23:53;59.17;;;14.60;;
53299;SDS011;39187;48.476;8.310;2024-01-15T02:26:20;32.60;;;12.90;;
53299;SDS011;39187;48.476;8.310;2024-01-15T02:28:45;35.67;;;14.83;;
53299;SDS011;39187;48.476;8.310;2024-01-15T02:31:11;37.00;;;16.67;;
53299;SDS011;39187;48.476;8.310;2024-01-15T02:33:37;38.90;;;14.80;;
53299;SDS011;39187;48.476;8.310;2024-01-15T02:36:02;41.47;;;13.80;;
53299;SDS011;39187;48.476;8.310;2024-01-15T02:38:28;33.30;;;13.70;;
53299;SDS011;39187;48.476;8.310;2024-01-15T02:40:54;40.53;;;16.90;;
53299;SDS011;39187;48.476;8.310;2024-01-15T02:43:19;36.63;;;13.57;;
53299;SDS011;39187;48.476;8.310;2024-01-15T02:45:45;49.27;;;14.67;;
53299;SDS011;39187;48.476;8.310;2024-01-15T02:48:11;39.77;;;15.17;;
53299;SDS011;39187;48.476;8.310;2024-01-15T02:50:37;35.57;;;14.37;;
53299;SDS011;39187;48.476;8.310;2024-01-15T02:53:03;38.47;;;14.47;;
53299;SDS011;39187;48.476;8.310;2024-01-15T02:55:28;35.90;;;16.70;;
53299;SDS011;39187;48.476;8.310;2024-01-15T02:57:57;36.80;;;14.30;;
53299;SDS011;39187;48.476;8.310;2024-01-15T03:00:23;35.30;;;15.57;;
53299;SDS011;39187;48.476;8.310;2024-01-15T03:02:49;26.80;;;13.77;;
53299;SDS011;39187;48.476;8.310;2024-01-15T03:05:16;34.93;;;14.67;;
53299;SDS011;39187;48.476;8.310;2024-01-15T03:07:41;36.63;;;13.90;;
53299;SDS011;39187;48.476;8.310;2024-01-15T03:10:07;35.70;;;14.30;;
53299;SDS011;39187;48.476;8.310;2024-01-15T03:12:33;32.90;;;14.50;;
53299;SDS011;39187;48.476;8.310;2024-01-15T03:14:59;32.07;;;13.53;;
53299;SDS011;39187;48.476;8.310;2024-01-15T03:17:25;39.43;;;14.60;;
53299;SDS011;39187;48.476;8.310;2024-01-15T03:19:50;39.60;;;14.37;;
53299;SDS011;39187;48.476;8.310;2024-01-15T03:22:16;34.90;;;14.20;;
53299;SDS011;39187;48.476;8.310;2024-01-15T03:24:43;34.67;;;14.40;;
53299;SDS011;39187;48.476;8.310;2024-01-15T03:27:08;25.50;;;13.63;;
53299;SDS011;39187;48.476;8.310;2024-01-15T03:29:34;33.40;;;12.67;;
53299;SDS011;39187;48.476;8.310;2024-01-15T03:31:59;35.73;;;14.50;;
53299;SDS011;39187;48.476;8.310;2024-01-15T03:34:25;34.93;;;13.27;;
53299;SDS011;39187;48.476;8.310;2024-01-15T03:36:50;35.20;;;13.50;;
53299;SDS011;39187;48.476;8.310;2024-01-15T03:39:16;27.37;;;13.33;;
53299;SDS011;39187;48.476;8.310;2024-01-15T03:41:41;28.00;;;12.80;;
53299;SDS011;39187;48.476;8.310;2024-01-15T03:44:07;37.37;;;12.83;;
53299;SDS011;39187;48.476;8.310;2024-01-15T03:46:33;29.07;;;12.83;;
53299;SDS011;39187;48.476;8.310;2024-01-15T03:48:58;35.90;;;13.67;;
53299;SDS011;39187;48.476;8.310;2024-01-15T03:51:24;23.03;;;12.70;;
53299;SDS011;39187;48.476;8.310;2024-01-15T03:53:49;29.07;;;12.60;;
53299;SDS011;39187;48.476;8.310;2024-01-15T03:56:15;33.17;;;12.63;;
53299;SDS011;39187;48.476;8.310;2024-01-15T03:58:41;24.00;;;11.63;;
53299;SDS011;39187;48.476;8.310;2024-01-15T04:01:09;27.27;;;13.07;;
53299;SDS011;39187;48.476;8.310;2024-01-15T04:03:36;34.93;;;11.00;;
53299;SDS011;39187;48.476;8.310;2024-01-15T04:06:02;25.73;;;11.43;;
53299;SDS011;39187;48.476;8.310;2024-01-15T04:08:28;28.50;;;10.87;;
53299;SDS011;39187;48.476;8.310;2024-01-15T04:10:54;32.70;;;12.03;;
53299;SDS011;39187;48.476;8.310;2024-01-15T04:13:20;25.13;;;10.80;;
53299;SDS011;39187;48.476;8.310;2024-01-15T04:15:45;37.73;;;10.93;;
53299;SDS011;39187;48.476;8.310;2024-01-15T04:18:11;20.13;;;10.20;;
53299;SDS011;39187;48.476;8.310;2024-01-15T04:20:37;28.70;;;10.67;;
53299;SDS011;39187;48.476;8.310;2024-01-15T04:23:03;24.27;;;11.57;;
53299;SDS011;39187;48.476;8.310;2024-01-15T04:25:29;20.27;;;10.20;;
53299;SDS011;39187;48.476;8.310;2024-01-15T04:27:55;23.60;;;10.80;;
53299;SDS011;39187;48.476;8.310;2024-01-15T04:30:20;20.20;;;9.67;;
53299;SDS011;39187;48.476;8.310;2024-01-15T04:32:46;19.23;;;9.27;;
53299;SDS011;39187;48.476;8.310;2024-01-15T04:35:11;21.17;;;10.20;;
53299;SDS011;39187;48.476;8.310;2024-01-15T04:37:37;21.23;;;10.20;;
53299;SDS011;39187;48.476;8.310;2024-01-15T04:40:04;17.13;;;9.40;;
53299;SDS011;39187;48.476;8.310;2024-01-15T04:42:31;17.13;;;9.07;;
53299;SDS011;39187;48.476;8.310;2024-01-15T04:44:57;18.23;;;10.00;;
53299;SDS011;39187;48.476;8.310;2024-01-15T04:47:22;18.90;;;9.97;;
53299;SDS011;39187;48.476;8.310;2024-01-15T04:49:48;25.43;;;10.93;;
53299;SDS011;39187;48.476;8.310;2024-01-15T04:52:14;18.90;;;10.97;;
53299;SDS011;39187;48.476;8.310;2024-01-15T04:54:40;18.00;;;10.60;;
53299;SDS011;39187;48.476;8.310;2024-01-15T04:57:06;24.00;;;12.53;;
53299;SDS011;39187;48.476;8.310;2024-01-15T04:59:31;26.27;;;12.10;;
53299;SDS011;39187;48.476;8.310;2024-01-15T05:01:57;19.90;;;11.63;;
53299;SDS011;39187;48.476;8.310;2024-01-15T05:04:22;19.20;;;10.50;;
53299;SDS011;39187;48.476;8.310;2024-01-15T05:06:50;21.93;;;9.83;;
53299;SDS011;39187;48.476;8.310;2024-01-15T05:09:15;21.67;;;10.83;;
53299;SDS011;39187;48.476;8.310;2024-01-15T05:11:41;25.10;;;10.50;;
53299;SDS011;39187;48.476;8.310;2024-01-15T05:14:07;23.90;;;9.97;;
53299;SDS011;39187;48.476;8.310;2024-01-15T05:16:32;25.27;;;11.17;;
53299;SDS011;39187;48.476;8.310;2024-01-15T05:18:58;18.40;;;11.70;;
53299;SDS011;39187;48.476;8.310;2024-01-15T05:21:24;25.63;;;11.37;;
53299;SDS011;39187;48.476;8.310;2024-01-15T05:23:49;23.57;;;12.10;;
53299;SDS011;39187;48.476;8.310;2024-01-15T05:26:15;22.67;;;10.00;;
53299;SDS011;39187;48.476;8.310;2024-01-15T05:28:41;17.40;;;10.57;;
53299;SDS011;39187;48.476;8.310;2024-01-15T05:31:08;17.67;;;9.83;;
53299;SDS011;39187;48.476;8.310;2024-01-15T05:33:34;19.13;;;9.83;;
53299;SDS011;39187;48.476;8.310;2024-01-15T05:35:59;22.43;;;10.73;;
53299;SDS011;39187;48.476;8.310;2024-01-15T05:38:25;17.30;;;9.63;;
53299;SDS011;39187;48.476;8.310;2024-01-15T05:40:50;20.40;;;10.27;;
53299;SDS011;39187;48.476;8.310;2024-01-15T05:43:16;29.70;;;9.63;;
53299;SDS011;39187;48.476;8.310;2024-01-15T05:45:43;14.10;;;8.97;;
53299;SDS011;39187;48.476;8.310;2024-01-15T05:48:10;21.93;;;10.37;;
53299;SDS011;39187;48.476;8.310;2024-01-15T05:50:35;17.30;;;8.77;;
53299;SDS011;39187;48.476;8.310;2024-01-15T05:53:01;16.60;;;10.67;;
53299;SDS011;39187;48.476;8.310;2024-01-15T05:55:27;15.00;;;8.73;;
53299;SDS011;39187;48.476;8.310;2024-01-15T05:57:53;20.83;;;10.20;;
53299;SDS011;39187;48.476;8.310;2024-01-15T06:00:19;16.80;;;9.03;;
53299;SDS011;39187;48.476;8.310;2024-01-15T06:02:44;19.37;;;9.63;;
53299;SDS011;39187;48.476;8.310;2024-01-15T06:05:10;21.60;;;9.53;;
53299;SDS011;39187;48.476;8.310;2024-01-15T06:07:35;20.23;;;8.90;;
53299;SDS011;39187;48.476;8.310;2024-01-15T06:10:02;16.90;;;8.73;;
53299;SDS011;39187;48.476;8.310;2024-01-15T06:12:28;19.80;;;9.17;;
53299;SDS011;39187;48.476;8.310;2024-01-15T06:14:53;21.57;;;9.47;;
53299;SDS011;39187;48.476;8.310;2024-01-15T06:17:19;12.37;;;7.80;;
53299;SDS011;39187;48.476;8.310;2024-01-15T06:19:44;19.80;;;9.77;;
53299;SDS011;39187;48.476;8.310;2024-01-15T06:22:10;18.67;;;9.70;;
53299;SDS011;39187;48.476;8.310;2024-01-15T06:24:35;17.67;;;10.47;;
53299;SDS011;39187;48.476;8.310;2024-01-15T06:27:01;19.80;;;9.30;;
53299;SDS011;39187;48.476;8.310;2024-01-15T06:29:26;29.67;;;11.60;;
53299;SDS011;39187;48.476;8.310;2024-01-15T06:31:53;16.27;;;9.30;;
53299;SDS011;39187;48.476;8.310;2024-01-15T06:34:18;14.50;;;9.93;;
53299;SDS011;39187;48.476;8.310;2024-01-15T06:36:44;16.83;;;8.83;;
53299;SDS011;39187;48.476;8.310;2024-01-15T06:39:09;19.83;;;9.10;;
53299;SDS011;39187;48.476;8.310;2024-01-15T06:41:35;22.97;;;9.60;;
53299;SDS011;39187;48.476;8.310;2024-01-15T06:44:11;15.00;;;9.60;;
53299;SDS011;39187;48.476;8.310;2024-01-15T06:46:44;17.87;;;9.60;;
53299;SDS011;39187;48.476;8.310;2024-01-15T06:49:10;13.50;;;8.20;;
53299;SDS011;39187;48.476;8.310;2024-01-15T06:51:36;27.90;;;10.13;;
53299;SDS011;39187;48.476;8.310;2024-01-15T06:54:02;19.67;;;9.77;;
53299;SDS011;39187;48.476;8.310;2024-01-15T06:56:28;17.40;;;9.57;;
53299;SDS011;39187;48.476;8.310;2024-01-15T06:58:53;14.90;;;9.07;;
53299;SDS011;39187;48.476;8.310;2024-01-15T07:01:19;22.20;;;8.20;;
53299;SDS011;39187;48.476;8.310;2024-01-15T07:03:45;23.00;;;10.40;;
53299;SDS011;39187;48.476;8.310;2024-01-15T07:06:11;15.70;;;9.20;;
53299;SDS011;39187;48.476;8.310;2024-01-15T07:08:38;18.13;;;9.90;;
53299;SDS011;39187;48.476;8.310;2024-01-15T07:11:04;12.50;;;7.60;;
53299;SDS011;39187;48.476;8.310;2024-01-15T07:13:31;14.00;;;8.33;;
53299;SDS011;39187;48.476;8.310;2024-01-15T07:15:57;19.57;;;8.83;;
53299;SDS011;39187;48.476;8.310;2024-01-15T07:18:22;11.83;;;7.40;;
53299;SDS011;39187;48.476;8.310;2024-01-15T07:20:48;12.03;;;7.57;;
53299;SDS011;39187;48.476;8.310;2024-01-15T07:23:14;15.20;;;7.73;;
53299;SDS011;39187;48.476;8.310;2024-01-15T07:25:39;17.67;;;8.77;;
53299;SDS011;39187;48.476;8.310;2024-01-15T07:28:05;15.40;;;8.13;;
53299;SDS011;39187;48.476;8.310;2024-01-15T07:30:31;10.53;;;6.20;;
53299;SDS011;39187;48.476;8.310;2024-01-15T07:32:56;11.27;;;7.30;;
53299;SDS011;39187;48.476;8.310;2024-01-15T07:35:22;13.30;;;7.50;;
53299;SDS011;39187;48.476;8.310;2024-01-15T07:37:47;11.37;;;6.63;;
53299;SDS011;39187;48.476;8.310;2024-01-15T07:40:13;12.93;;;6.27;;
53299;SDS011;39187;48.476;8.310;2024-01-15T07:42:39;16.70;;;6.83;;
53299;SDS011;39187;48.476;8.310;2024-01-15T07:45:04;11.20;;;7.30;;
53299;SDS011;39187;48.476;8.310;2024-01-15T07:47:31;16.37;;;8.13;;
53299;SDS011;39187;48.476;8.310;2024-01-15T07:49:57;12.23;;;6.87;;
53299;SDS011;39187;48.476;8.310;2024-01-15T07:52:22;11.03;;;7.13;;
53299;SDS011;39187;48.476;8.310;2024-01-15T07:54:48;16.73;;;7.33;;
53299;SDS011;39187;48.476;8.310;2024-01-15T07:57:13;12.80;;;7.10;;
53299;SDS011;39187;48.476;8.310;2024-01-15T07:59:40;12.93;;;8.23;;
53299;SDS011;39187;48.476;8.310;2024-01-15T08:02:06;13.70;;;8.27;;
53299;SDS011;39187;48.476;8.310;2024-01-15T08:04:31;10.73;;;7.70;;
53299;SDS011;39187;48.476;8.310;2024-01-15T08:06:57;15.10;;;8.40;;
53299;SDS011;39187;48.476;8.310;2024-01-15T08:09:22;10.17;;;7.33;;
53299;SDS011;39187;48.476;8.310;2024-01-15T08:11:48;16.23;;;8.27;;
53299;SDS011;39187;48.476;8.310;2024-01-15T08:14:17;10.63;;;7.50;;
53299;SDS011;39187;48.476;8.310;2024-01-15T08:16:43;12.47;;;8.00;;
53299;SDS011;39187;48.476;8.310;2024-01-15T08:19:09;11.40;;;7.47;;
53299;SDS011;39187;48.476;8.310;2024-01-15T08:21:34;13.30;;;7.10;;
53299;SDS011;39187;48.476;8.310;2024-01-15T08:24:00;12.83;;;7.07;;
53299;SDS011;39187;48.476;8.310;2024-01-15T08:26:27;8.53;;;6.57;;
53299;SDS011;39187;48.476;8.310;2024-01-15T08:28:53;13.20;;;7.27;;
53299;SDS011;39187;48.476;8.310;2024-01-15T08:31:18;12.23;;;7.47;;
53299;SDS011;39187;48.476;8.310;2024-01-15T08:33:44;10.67;;;7.20;;
53299;SDS011;39187;48.476;8.310;2024-01-15T08:36:10;21.73;;;6.50;;
53299;SDS011;39187;48.476;8.310;2024-01-15T08:38:35;11.73;;;6.73;;
53299;SDS011;39187;48.476;8.310;2024-01-15T08:41:01;10.00;;;6.20;;
53299;SDS011;39187;48.476;8.310;2024-01-15T08:43:27;12.83;;;6.50;;
53299;SDS011;39187;48.476;8.310;2024-01-15T08:45:53;12.47;;;7.00;;
53299;SDS011;39187;48.476;8.310;2024-01-15T08:48:18;11.13;;;6.97;;
53299;SDS011;39187;48.476;8.310;2024-01-15T08:50:44;11.83;;;7.53;;
53299;SDS011;39187;48.476;8.310;2024-01-15T08:53:13;11.93;;;6.90;;
53299;SDS011;39187;48.476;8.310;2024-01-15T08:55:38;15.53;;;7.43;;
53299;SDS011;39187;48.476;8.310;2024-01-15T08:58:04;14.47;;;7.83;;
53299;SDS011;39187;48.476;8.310;2024-01-15T09:00:31;13.60;;;6.73;;
53299;SDS011;39187;48.476;8.310;2024-01-15T09:02:57;10.17;;;6.47;;
53299;SDS011;39187;48.476;8.310;2024-01-15T09:05:22;24.97;;;8.63;;
53299;SDS011;39187;48.476;8.310;2024-01-15T09:07:48;18.30;;;9.93;;
53299;SDS011;39187;48.476;8.310;2024-01-15T09:10:14;14.30;;;7.53;;
53299;SDS011;39187;48.476;8.310;2024-01-15T09:12:39;13.73;;;7.93;;
53299;SDS011;39187;48.476;8.310;2024-01-15T09:15:05;11.83;;;7.23;;
53299;SDS011;39187;48.476;8.310;2024-01-15T09:17:31;18.03;;;8.63;;
53299;SDS011;39187;48.476;8.310;2024-01-15T09:19:57;13.97;;;8.23;;
53299;SDS011;39187;48.476;8.310;2024-01-15T09:22:23;15.87;;;7.23;;
53299;SDS011;39187;48.476;8.310;2024-01-15T09:24:49;12.10;;;7.87;;
53299;SDS011;39187;48.476;8.310;2024-01-15T09:27:16;16.57;;;8.20;;
53299;SDS011;39187;48.476;8.310;2024-01-15T09:29:42;18.97;;;7.73;;
53299;SDS011;39187;48.476;8.310;2024-01-15T09:32:10;13.03;;;7.37;;
53299;SDS011;39187;48.476;8.310;2024-01-15T09:34:37;15.13;;;8.83;;
53299;SDS011;39187;48.476;8.310;2024-01-15T09:37:02;13.93;;;8.40;;
53299;SDS011;39187;48.476;8.310;2024-01-15T09:39:29;14.70;;;8.33;;
53299;SDS011;39187;48.476;8.310;2024-01-15T09:41:55;15.17;;;8.23;;
53299;SDS011;39187;48.476;8.310;2024-01-15T09:44:22;14.37;;;7.80;;
53299;SDS011;39187;48.476;8.310;2024-01-15T09:46:48;14.23;;;9.03;;
53299;SDS011;39187;48.476;8.310;2024-01-15T09:49:17;15.97;;;8.27;;
53299;SDS011;39187;48.476;8.310;2024-01-15T09:51:43;17.70;;;8.80;;
53299;SDS011;39187;48.476;8.310;2024-01-15T09:54:09;8.10;;;6.93;;
53299;SDS011;39187;48.476;8.310;2024-01-15T09:56:35;13.13;;;9.47;;
53299;SDS011;39187;48.476;8.310;2024-01-15T09:59:01;10.50;;;7.33;;
53299;SDS011;39187;48.476;8.310;2024-01-15T10:01:29;17.53;;;8.93;;
53299;SDS011;39187;48.476;8.310;2024-01-15T10:03:56;9.47;;;8.00;;
53299;SDS011;39187;48.476;8.310;2024-01-15T10:06:23;10.23;;;8.00;;
53299;SDS011;39187;48.476;8.310;2024-01-15T10:08:53;16.67;;;8.30;;
53299;SDS011;39187;48.476;8.310;2024-01-15T10:11:19;11.60;;;8.27;;
53299;SDS011;39187;48.476;8.310;2024-01-15T10:13:45;14.93;;;8.17;;
53299;SDS011;39187;48.476;8.310;2024-01-15T10:16:11;21.97;;;10.37;;
53299;SDS011;39187;48.476;8.310;2024-01-15T10:18:37;12.20;;;8.37;;
53299;SDS011;39187;48.476;8.310;2024-01-15T10:21:05;17.70;;;8.73;;
53299;SDS011;39187;48.476;8.310;2024-01-15T10:23:34;16.50;;;8.93;;
53299;SDS011;39187;48.476;8.310;2024-01-15T10:26:01;14.93;;;8.30;;
53299;SDS011;39187;48.476;8.310;2024-01-15T10:28:27;13.17;;;8.90;;
53299;SDS011;39187;48.476;8.310;2024-01-15T10:30:55;13.90;;;7.50;;
53299;SDS011;39187;48.476;8.310;2024-01-15T10:33:24;15.00;;;8.63;;
53299;SDS011;39187;48.476;8.310;2024-01-15T10:35:53;15.67;;;9.20;;
53299;SDS011;39187;48.476;8.310;2024-01-15T10:38:20;13.60;;;8.07;;
53299;SDS011;39187;48.476;8.310;2024-01-15T10:40:47;14.97;;;8.03;;
53299;SDS011;39187;48.476;8.310;2024-01-15T10:43:17;14.00;;;8.70;;
53299;SDS011;39187;48.476;8.310;2024-01-15T10:45:46;11.63;;;8.10;;
53299;SDS011;39187;48.476;8.310;2024-01-15T10:48:12;14.00;;;8.37;;
53299;SDS011;39187;48.476;8.310;2024-01-15T10:50:38;17.00;;;7.80;;
53299;SDS011;39187;48.476;8.310;2024-01-15T10:53:04;16.43;;;9.10;;
53299;SDS011;39187;48.476;8.310;2024-01-15T10:55:30;13.03;;;8.90;;
53299;SDS011;39187;48.476;8.310;2024-01-15T10:57:57;15.30;;;7.30;;
53299;SDS011;39187;48.476;8.310;2024-01-15T11:00:23;12.10;;;7.40;;
53299;SDS011;39187;48.476;8.310;2024-01-15T11:02:50;11.83;;;8.47;;
53299;SDS011;39187;48.476;8.310;2024-01-15T11:05:17;16.53;;;9.00;;
53299;SDS011;39187;48.476;8.310;2024-01-15T11:07:47;10.67;;;7.97;;
53299;SDS011;39187;48.476;8.310;2024-01-15T11:18:36;10.97;;;7.07;;
53299;SDS011;39187;48.476;8.310;2024-01-15T11:29:10;12.27;;;6.80;;
53299;SDS011;39187;48.476;8.310;2024-01-15T11:34:21;13.20;;;5.40;;
53299;SDS011;39187;48.476;8.310;2024-01-15T11:37:06;7.53;;;5.37;;
53299;SDS011;39187;48.476;8.310;2024-01-15T11:41:59;14.40;;;7.30;;
53299;SDS011;39187;48.476;8.310;2024-01-15T11:44:28;10.03;;;6.07;;
53299;SDS011;39187;48.476;8.310;2024-01-15T11:47:05;6.73;;;5.60;;
53299;SDS011;39187;48.476;8.310;2024-01-15T11:52:47;6.00;;;5.50;;
53299;SDS011;39187;48.476;8.310;2024-01-15T11:57:54;7.90;;;6.27;;
53299;SDS011;39187;48.476;8.310;2024-01-15T12:00:22;12.70;;;7.13;;
53299;SDS011;39187;48.476;8.310;2024-01-15T12:02:49;6.10;;;5.13;;
53299;SDS011;39187;48.476;8.310;2024-01-15T12:05:19;9.90;;;5.23;;
53299;SDS011;39187;48.476;8.310;2024-01-15T12:07:48;7.00;;;4.90;;
53299;SDS011;39187;48.476;8.310;2024-01-15T12:10:18;4.40;;;4.00;;
53299;SDS011;39187;48.476;8.310;2024-01-15T12:15:22;5.60;;;5.20;;
53299;SDS011;39187;48.476;8.310;2024-01-15T12:17:49;4.60;;;4.20;;
53299;SDS011;39187;48.476;8.310;2024-01-15T12:20:14;6.70;;;4.50;;
53299;SDS011;39187;48.476;8.310;2024-01-15T12:22:41;7.63;;;4.73;;
53299;SDS011;39187;48.476;8.310;2024-01-15T12:25:06;5.60;;;5.13;;
53299;SDS011;39187;48.476;8.310;2024-01-15T12:27:32;6.53;;;6.10;;
53299;SDS011;39187;48.476;8.310;2024-01-15T12:29:58;4.90;;;4.43;;
53299;SDS011;39187;48.476;8.310;2024-01-15T12:32:24;5.30;;;4.77;;
53299;SDS011;39187;48.476;8.310;2024-01-15T12:34:50;6.87;;;6.13;;
53299;SDS011;39187;48.476;8.310;2024-01-15T12:37:18;7.60;;;4.77;;
53299;SDS011;39187;48.476;8.310;2024-01-15T12:39:45;5.23;;;4.83;;
53299;SDS011;39187;48.476;8.310;2024-01-15T12:42:10;8.70;;;5.03;;
53299;SDS011;39187;48.476;8.310;2024-01-15T12:44:36;5.13;;;4.30;;
53299;SDS011;39187;48.476;8.310;2024-01-15T12:47:05;5.90;;;4.70;;
53299;SDS011;39187;48.476;8.310;2024-01-15T12:49:31;5.60;;;4.00;;
53299;SDS011;39187;48.476;8.310;2024-01-15T12:51:57;5.27;;;4.77;;
53299;SDS011;39187;48.476;8.310;2024-01-15T12:54:23;5.47;;;3.97;;
53299;SDS011;39187;48.476;8.310;2024-01-15T12:56:50;5.07;;;4.70;;
53299;SDS011;39187;48.476;8.310;2024-01-15T12:59:16;8.97;;;5.80;;
53299;SDS011;39187;48.476;8.310;2024-01-15T13:01:42;4.43;;;4.03;;
53299;SDS011;39187;48.476;8.310;2024-01-15T13:04:08;5.30;;;4.40;;
53299;SDS011;39187;48.476;8.310;2024-01-15T13:06:34;4.67;;;4.27;;
53299;SDS011;39187;48.476;8.310;2024-01-15T13:09:00;3.60;;;3.40;;
53299;SDS011;39187;48.476;8.310;2024-01-15T13:11:26;4.60;;;4.20;;
53299;SDS011;39187;48.476;8.310;2024-01-15T13:13:52;3.23;;;3.03;;
53299;SDS011;39187;48.476;8.310;2024-01-15T13:16:18;3.30;;;3.10;;
53299;SDS011;39187;48.476;8.310;2024-01-15T13:18:46;3.90;;;3.67;;
53299;SDS011;39187;48.476;8.310;2024-01-15T13:21:11;4.03;;;3.73;;
53299;SDS011;39187;48.476;8.310;2024-01-15T13:23:38;3.63;;;3.40;;
53299;SDS011;39187;48.476;8.310;2024-01-15T13:26:03;4.73;;;3.60;;
53299;SDS011;39187;48.476;8.310;2024-01-15T13:28:30;3.70;;;3.40;;
53299;SDS011;39187;48.476;8.310;2024-01-15T13:30:55;3.33;;;3.10;;
53299;SDS011;39187;48.476;8.310;2024-01-15T13:33:21;3.50;;;3.27;;
53299;SDS011;39187;48.476;8.310;2024-01-15T13:35:47;2.90;;;2.70;;
53299;SDS011;39187;48.476;8.310;2024-01-15T13:38:15;2.53;;;2.43;;
53299;SDS011;39187;48.476;8.310;2024-01-15T13:40:41;2.30;;;2.20;;
53299;SDS011;39187;48.476;8.310;2024-01-15T13:43:06;2.50;;;2.40;;
53299;SDS011;39187;48.476;8.310;2024-01-15T13:45:33;2.47;;;2.33;;
53299;SDS011;39187;48.476;8.310;2024-01-15T13:48:00;2.83;;;2.63;;
53299;SDS011;39187;48.476;8.310;2024-01-15T13:50:26;2.90;;;1.90;;
53299;SDS011;39187;48.476;8.310;2024-01-15T13:52:52;2.53;;;2.33;;
53299;SDS011;39187;48.476;8.310;2024-01-15T13:55:18;2.30;;;2.20;;
53299;SDS011;39187;48.476;8.310;2024-01-15T13:57:43;1.80;;;1.70;;
53299;SDS011;39187;48.476;8.310;2024-01-15T14:00:09;1.70;;;1.53;;
53299;SDS011;39187;48.476;8.310;2024-01-15T14:02:37;2.03;;;1.93;;
53299;SDS011;39187;48.476;8.310;2024-01-15T14:05:02;1.77;;;1.67;;
53299;SDS011;39187;48.476;8.310;2024-01-15T14:07:28;1.43;;;1.33;;
53299;SDS011;39187;48.476;8.310;2024-01-15T14:09:54;1.90;;;1.80;;
53299;SDS011;39187;48.476;8.310;2024-01-15T14:12:19;1.47;;;1.37;;
53299;SDS011;39187;48.476;8.310;2024-01-15T14:14:45;1.33;;;1.33;;
53299;SDS011;39187;48.476;8.310;2024-01-15T14:17:10;1.40;;;1.30;;
53299;SDS011;39187;48.476;8.310;2024-01-15T14:19:36;1.20;;;1.10;;
53299;SDS011;39187;48.476;8.310;2024-01-15T14:22:01;1.07;;;1.07;;
53299;SDS011;39187;48.476;8.310;2024-01-15T14:24:27;1.50;;;1.40;;
53299;SDS011;39187;48.476;8.310;2024-01-15T14:26:52;3.07;;;0.90;;
53299;SDS011;39187;48.476;8.310;2024-01-15T14:29:18;1.00;;;1.00;;
53299;SDS011;39187;48.476;8.310;2024-01-15T14:31:47;0.90;;;0.90;;
53299;SDS011;39187;48.476;8.310;2024-01-15T14:34:13;1.27;;;1.27;;
53299;SDS011;39187;48.476;8.310;2024-01-15T14:36:39;1.60;;;1.50;;
53299;SDS011;39187;48.476;8.310;2024-01-15T14:39:04;1.50;;;1.50;;
53299;SDS011;39187;48.476;8.310;2024-01-15T14:41:29;2.57;;;2.47;;
53299;SDS011;39187;48.476;8.310;2024-01-15T14:43:55;9.37;;;2.63;;
53299;SDS011;39187;48.476;8.310;2024-01-15T14:46:22;3.90;;;3.00;;
53299;SDS011;39187;48.476;8.310;2024-01-15T14:48:47;5.03;;;3.87;;
53299;SDS011;39187;48.476;8.310;2024-01-15T14:51:13;4.07;;;3.77;;
53299;SDS011;39187;48.476;8.310;2024-01-15T14:53:39;3.90;;;3.70;;
53299;SDS011;39187;48.476;8.310;2024-01-15T14:56:04;7.93;;;4.80;;